sensor_id;sensor_type;location;lat;lon;timestamp;P1;durP1;ratioP1;P2;durP2;ratioP2
68365;SDS011;55283;51.466;5.478;2023-06-10T00:01:54;4.53;;;3.70;;
68365;SDS011;55283;51.466;5.478;2023-06-10T00:04:22;3.97;;;3.58;;
68365;SDS011;55283;51.466;5.478;2023-06-10T00:06:48;3.97;;;3.57;;
68365;SDS011;55283;51.466;5.478;2023-06-10T00:09:14;4.22;;;3.83;;
68365;SDS011;55283;51.466;5.478;2023-06-10T00:11:40;4.75;;;3.83;;
68365;SDS011;55283;51.466;5.478;2023-06-10T00:14:06;5.22;;;3.90;;
68365;SDS011;55283;51.466;5.478;2023-06-10T00:16:32;4.20;;;3.80;;
68365;SDS011;55283;51.466;5.478;2023-06-10T00:19:02;4.30;;;3.90;;
68365;SDS011;55283;51.466;5.478;2023-06-10T00:21:28;5.30;;;3.60;;
68365;SDS011;55283;51.466;5.478;2023-06-10T00:23:55;4.22;;;3.70;;
68365;SDS011;55283;51.466;5.478;2023-06-10T00:26:24;4.90;;;3.63;;
68365;SDS011;55283;51.466;5.478;2023-06-10T00:28:51;4.27;;;3.87;;
68365;SDS011;55283;51.466;5.478;2023-06-10T00:31:17;4.93;;;4.00;;
68365;SDS011;55283;51.466;5.478;2023-06-10T00:33:42;4.53;;;3.80;;
68365;SDS011;55283;51.466;5.478;2023-06-10T00:36:08;4.63;;;4.00;;
68365;SDS011;55283;51.466;5.478;2023-06-10T00:38:33;5.23;;;3.50;;
68365;SDS011;55283;51.466;5.478;2023-06-10T00:40:59;3.97;;;3.63;;
68365;SDS011;55283;51.466;5.478;2023-06-10T00:43:24;4.53;;;3.42;;
68365;SDS011;55283;51.466;5.478;2023-06-10T00:45:50;4.80;;;3.80;;
68365;SDS011;55283;51.466;5.478;2023-06-10T00:48:17;3.83;;;3.40;;
68365;SDS011;55283;51.466;5.478;2023-06-10T00:50:43;4.07;;;3.60;;
68365;SDS011;55283;51.466;5.478;2023-06-10T00:53:09;4.88;;;3.80;;
68365;SDS011;55283;51.466;5.478;2023-06-10T00:55:35;4.13;;;3.70;;
68365;SDS011;55283;51.466;5.478;2023-06-10T00:58:00;4.30;;;3.77;;
68365;SDS011;55283;51.466;5.478;2023-06-10T01:00:27;4.75;;;3.80;;
68365;SDS011;55283;51.466;5.478;2023-06-10T01:02:52;4.00;;;3.60;;
68365;SDS011;55283;51.466;5.478;2023-06-10T01:05:18;4.60;;;3.58;;
68365;SDS011;55283;51.466;5.478;2023-06-10T01:10:43;3.90;;;3.50;;
68365;SDS011;55283;51.466;5.478;2023-06-10T01:13:11;4.20;;;3.80;;
68365;SDS011;55283;51.466;5.478;2023-06-10T01:15:39;3.87;;;3.40;;
68365;SDS011;55283;51.466;5.478;2023-06-10T01:18:05;4.80;;;3.55;;
68365;SDS011;55283;51.466;5.478;2023-06-10T01:20:34;4.65;;;3.30;;
68365;SDS011;55283;51.466;5.478;2023-06-10T01:23:05;4.00;;;3.60;;
68365;SDS011;55283;51.466;5.478;2023-06-10T01:25:31;3.85;;;3.42;;
68365;SDS011;55283;51.466;5.478;2023-06-10T01:28:07;4.00;;;3.35;;
68365;SDS011;55283;51.466;5.478;2023-06-10T01:30:45;4.05;;;3.67;;
68365;SDS011;55283;51.466;5.478;2023-06-10T01:33:16;3.80;;;3.50;;
68365;SDS011;55283;51.466;5.478;2023-06-10T01:35:43;4.22;;;3.67;;
68365;SDS011;55283;51.466;5.478;2023-06-10T01:38:11;5.40;;;3.58;;
68365;SDS011;55283;51.466;5.478;2023-06-10T01:40:39;3.70;;;3.40;;
68365;SDS011;55283;51.466;5.478;2023-06-10T01:43:06;3.90;;;3.40;;
68365;SDS011;55283;51.466;5.478;2023-06-10T01:45:31;3.70;;;3.40;;
68365;SDS011;55283;51.466;5.478;2023-06-10T01:47:56;4.10;;;3.47;;
68365;SDS011;55283;51.466;5.478;2023-06-10T01:50:22;4.53;;;3.53;;
68365;SDS011;55283;51.466;5.478;2023-06-10T01:52:47;4.00;;;3.60;;
68365;SDS011;55283;51.466;5.478;2023-06-10T01:55:13;4.17;;;3.37;;
68365;SDS011;55283;51.466;5.478;2023-06-10T01:57:38;3.20;;;2.90;;
68365;SDS011;55283;51.466;5.478;2023-06-10T02:00:04;3.67;;;3.37;;
68365;SDS011;55283;51.466;5.478;2023-06-10T02:02:30;4.33;;;3.63;;
68365;SDS011;55283;51.466;5.478;2023-06-10T02:04:55;3.85;;;3.38;;
68365;SDS011;55283;51.466;5.478;2023-06-10T02:07:22;3.73;;;3.40;;
68365;SDS011;55283;51.466;5.478;2023-06-10T02:09:47;4.00;;;3.40;;
68365;SDS011;55283;51.466;5.478;2023-06-10T02:12:12;4.40;;;3.50;;
68365;SDS011;55283;51.466;5.478;2023-06-10T02:14:38;4.17;;;3.50;;
68365;SDS011;55283;51.466;5.478;2023-06-10T02:17:03;3.40;;;3.10;;
68365;SDS011;55283;51.466;5.478;2023-06-10T02:19:29;4.13;;;3.28;;
68365;SDS011;55283;51.466;5.478;2023-06-10T02:21:55;5.75;;;3.30;;
68365;SDS011;55283;51.466;5.478;2023-06-10T02:24:21;3.80;;;3.50;;
68365;SDS011;55283;51.466;5.478;2023-06-10T02:26:46;3.97;;;3.50;;
68365;SDS011;55283;51.466;5.478;2023-06-10T02:29:13;3.63;;;3.33;;
68365;SDS011;55283;51.466;5.478;2023-06-10T02:31:38;3.57;;;3.27;;
68365;SDS011;55283;51.466;5.478;2023-06-10T02:34:04;3.63;;;3.33;;
68365;SDS011;55283;51.466;5.478;2023-06-10T02:36:30;3.80;;;3.50;;
68365;SDS011;55283;51.466;5.478;2023-06-10T02:38:55;3.70;;;3.33;;
68365;SDS011;55283;51.466;5.478;2023-06-10T02:41:21;3.50;;;3.20;;
68365;SDS011;55283;51.466;5.478;2023-06-10T02:43:47;3.70;;;3.30;;
68365;SDS011;55283;51.466;5.478;2023-06-10T02:46:12;3.90;;;3.58;;
68365;SDS011;55283;51.466;5.478;2023-06-10T02:48:45;3.37;;;3.07;;
68365;SDS011;55283;51.466;5.478;2023-06-10T02:51:11;3.50;;;3.20;;
68365;SDS011;55283;51.466;5.478;2023-06-10T02:53:37;4.10;;;3.70;;
68365;SDS011;55283;51.466;5.478;2023-06-10T02:56:03;3.90;;;3.60;;
68365;SDS011;55283;51.466;5.478;2023-06-10T02:58:29;3.92;;;3.55;;
68365;SDS011;55283;51.466;5.478;2023-06-10T03:00:54;3.83;;;3.40;;
68365;SDS011;55283;51.466;5.478;2023-06-10T03:03:20;3.83;;;3.53;;
68365;SDS011;55283;51.466;5.478;2023-06-10T03:05:47;3.90;;;3.40;;
68365;SDS011;55283;51.466;5.478;2023-06-10T03:08:13;3.70;;;3.40;;
68365;SDS011;55283;51.466;5.478;2023-06-10T03:10:38;3.58;;;3.28;;
68365;SDS011;55283;51.466;5.478;2023-06-10T03:13:04;3.70;;;3.40;;
68365;SDS011;55283;51.466;5.478;2023-06-10T03:15:29;3.53;;;3.23;;
68365;SDS011;55283;51.466;5.478;2023-06-10T03:17:57;3.53;;;3.20;;
68365;SDS011;55283;51.466;5.478;2023-06-10T03:20:25;3.50;;;3.17;;
68365;SDS011;55283;51.466;5.478;2023-06-10T03:22:50;4.30;;;3.03;;
68365;SDS011;55283;51.466;5.478;2023-06-10T03:25:16;4.07;;;3.50;;
68365;SDS011;55283;51.466;5.478;2023-06-10T03:27:42;4.97;;;3.60;;
68365;SDS011;55283;51.466;5.478;2023-06-10T03:30:07;4.50;;;3.20;;
68365;SDS011;55283;51.466;5.478;2023-06-10T03:32:35;3.67;;;3.37;;
68365;SDS011;55283;51.466;5.478;2023-06-10T03:35:01;4.68;;;3.40;;
68365;SDS011;55283;51.466;5.478;2023-06-10T03:37:28;3.55;;;3.25;;
68365;SDS011;55283;51.466;5.478;2023-06-10T03:39:53;3.33;;;3.03;;
68365;SDS011;55283;51.466;5.478;2023-06-10T03:42:19;3.60;;;3.30;;
68365;SDS011;55283;51.466;5.478;2023-06-10T03:44:44;3.50;;;3.20;;
68365;SDS011;55283;51.466;5.478;2023-06-10T03:47:10;3.45;;;3.15;;
68365;SDS011;55283;51.466;5.478;2023-06-10T03:49:35;3.70;;;3.40;;
68365;SDS011;55283;51.466;5.478;2023-06-10T03:52:01;3.92;;;3.00;;
68365;SDS011;55283;51.466;5.478;2023-06-10T03:54:27;3.83;;;3.43;;
68365;SDS011;55283;51.466;5.478;2023-06-10T03:56:52;4.57;;;3.20;;
68365;SDS011;55283;51.466;5.478;2023-06-10T03:59:18;3.70;;;3.40;;
68365;SDS011;55283;51.466;5.478;2023-06-10T04:01:43;3.63;;;3.33;;
68365;SDS011;55283;51.466;5.478;2023-06-10T04:04:09;3.47;;;3.17;;
68365;SDS011;55283;51.466;5.478;2023-06-10T04:06:35;4.82;;;3.30;;
68365;SDS011;55283;51.466;5.478;2023-06-10T04:09:02;3.50;;;3.20;;
68365;SDS011;55283;51.466;5.478;2023-06-10T04:11:28;3.20;;;2.90;;
68365;SDS011;55283;51.466;5.478;2023-06-10T04:13:53;5.20;;;3.30;;
68365;SDS011;55283;51.466;5.478;2023-06-10T04:16:19;3.77;;;3.47;;
68365;SDS011;55283;51.466;5.478;2023-06-10T04:18:46;3.70;;;3.38;;
68365;SDS011;55283;51.466;5.478;2023-06-10T04:21:12;3.35;;;3.05;;
68365;SDS011;55283;51.466;5.478;2023-06-10T04:23:37;3.40;;;3.10;;
68365;SDS011;55283;51.466;5.478;2023-06-10T04:26:03;3.65;;;3.30;;
68365;SDS011;55283;51.466;5.478;2023-06-10T04:28:30;3.30;;;3.00;;
68365;SDS011;55283;51.466;5.478;2023-06-10T04:30:56;3.75;;;3.25;;
68365;SDS011;55283;51.466;5.478;2023-06-10T04:33:21;3.50;;;3.20;;
68365;SDS011;55283;51.466;5.478;2023-06-10T04:35:46;3.20;;;2.90;;
68365;SDS011;55283;51.466;5.478;2023-06-10T04:38:12;3.50;;;3.20;;
68365;SDS011;55283;51.466;5.478;2023-06-10T04:40:38;3.53;;;3.22;;
68365;SDS011;55283;51.466;5.478;2023-06-10T04:43:04;3.63;;;3.13;;
68365;SDS011;55283;51.466;5.478;2023-06-10T04:45:29;4.53;;;3.10;;
68365;SDS011;55283;51.466;5.478;2023-06-10T04:47:56;3.67;;;3.30;;
68365;SDS011;55283;51.466;5.478;2023-06-10T04:50:22;3.50;;;3.20;;
68365;SDS011;55283;51.466;5.478;2023-06-10T04:52:48;6.07;;;3.47;;
68365;SDS011;55283;51.466;5.478;2023-06-10T04:55:13;3.50;;;3.20;;
68365;SDS011;55283;51.466;5.478;2023-06-10T04:57:38;4.23;;;3.23;;
68365;SDS011;55283;51.466;5.478;2023-06-10T05:00:04;3.60;;;3.30;;
68365;SDS011;55283;51.466;5.478;2023-06-10T05:02:31;3.55;;;3.10;;
68365;SDS011;55283;51.466;5.478;2023-06-10T05:04:56;4.20;;;3.50;;
68365;SDS011;55283;51.466;5.478;2023-06-10T05:07:23;3.78;;;3.20;;
68365;SDS011;55283;51.466;5.478;2023-06-10T05:09:48;3.73;;;3.03;;
68365;SDS011;55283;51.466;5.478;2023-06-10T05:12:14;4.15;;;3.25;;
68365;SDS011;55283;51.466;5.478;2023-06-10T05:14:39;3.53;;;3.23;;
68365;SDS011;55283;51.466;5.478;2023-06-10T05:17:05;4.20;;;3.30;;
68365;SDS011;55283;51.466;5.478;2023-06-10T05:19:31;3.55;;;3.22;;
68365;SDS011;55283;51.466;5.478;2023-06-10T05:21:57;4.20;;;3.20;;
68365;SDS011;55283;51.466;5.478;2023-06-10T05:24:22;4.63;;;3.15;;
68365;SDS011;55283;51.466;5.478;2023-06-10T05:26:48;3.63;;;3.13;;
68365;SDS011;55283;51.466;5.478;2023-06-10T05:29:14;3.60;;;3.20;;
68365;SDS011;55283;51.466;5.478;2023-06-10T05:31:40;4.33;;;3.37;;
68365;SDS011;55283;51.466;5.478;2023-06-10T05:34:06;3.80;;;3.40;;
68365;SDS011;55283;51.466;5.478;2023-06-10T05:36:31;4.03;;;3.00;;
68365;SDS011;55283;51.466;5.478;2023-06-10T05:38:57;6.15;;;3.33;;
68365;SDS011;55283;51.466;5.478;2023-06-10T05:41:23;3.67;;;3.37;;
68365;SDS011;55283;51.466;5.478;2023-06-10T05:43:48;5.55;;;3.60;;
68365;SDS011;55283;51.466;5.478;2023-06-10T05:46:13;3.40;;;3.10;;
68365;SDS011;55283;51.466;5.478;2023-06-10T05:48:39;3.47;;;3.17;;
68365;SDS011;55283;51.466;5.478;2023-06-10T05:51:04;3.37;;;3.00;;
68365;SDS011;55283;51.466;5.478;2023-06-10T05:53:30;6.38;;;3.53;;
68365;SDS011;55283;51.466;5.478;2023-06-10T05:55:56;4.87;;;3.20;;
68365;SDS011;55283;51.466;5.478;2023-06-10T05:58:22;4.90;;;3.53;;
68365;SDS011;55283;51.466;5.478;2023-06-10T06:00:48;5.55;;;3.80;;
68365;SDS011;55283;51.466;5.478;2023-06-10T06:03:14;5.83;;;3.50;;
68365;SDS011;55283;51.466;5.478;2023-06-10T06:05:39;7.17;;;3.47;;
68365;SDS011;55283;51.466;5.478;2023-06-10T06:08:05;4.78;;;3.33;;
68365;SDS011;55283;51.466;5.478;2023-06-10T06:10:31;4.87;;;3.30;;
68365;SDS011;55283;51.466;5.478;2023-06-10T06:12:56;7.80;;;3.80;;
68365;SDS011;55283;51.466;5.478;2023-06-10T06:15:22;6.03;;;3.40;;
68365;SDS011;55283;51.466;5.478;2023-06-10T06:17:47;7.23;;;3.77;;
68365;SDS011;55283;51.466;5.478;2023-06-10T06:20:13;6.55;;;4.10;;
68365;SDS011;55283;51.466;5.478;2023-06-10T06:22:38;7.27;;;4.60;;
68365;SDS011;55283;51.466;5.478;2023-06-10T06:25:04;8.27;;;4.33;;
68365;SDS011;55283;51.466;5.478;2023-06-10T06:27:30;9.00;;;6.10;;
68365;SDS011;55283;51.466;5.478;2023-06-10T06:29:56;8.27;;;5.60;;
68365;SDS011;55283;51.466;5.478;2023-06-10T06:32:22;9.10;;;5.63;;
68365;SDS011;55283;51.466;5.478;2023-06-10T06:34:49;10.43;;;6.57;;
68365;SDS011;55283;51.466;5.478;2023-06-10T06:37:19;9.73;;;6.57;;
68365;SDS011;55283;51.466;5.478;2023-06-10T06:39:46;15.50;;;6.78;;
68365;SDS011;55283;51.466;5.478;2023-06-10T06:42:27;8.15;;;6.03;;
68365;SDS011;55283;51.466;5.478;2023-06-10T06:44:52;11.43;;;6.90;;
68365;SDS011;55283;51.466;5.478;2023-06-10T06:47:18;11.30;;;5.83;;
68365;SDS011;55283;51.466;5.478;2023-06-10T06:49:45;11.90;;;6.88;;
68365;SDS011;55283;51.466;5.478;2023-06-10T06:52:11;11.88;;;6.70;;
68365;SDS011;55283;51.466;5.478;2023-06-10T06:54:37;9.23;;;6.50;;
68365;SDS011;55283;51.466;5.478;2023-06-10T06:57:02;10.27;;;6.30;;
68365;SDS011;55283;51.466;5.478;2023-06-10T06:59:28;10.40;;;6.00;;
68365;SDS011;55283;51.466;5.478;2023-06-10T07:01:53;11.60;;;6.37;;
68365;SDS011;55283;51.466;5.478;2023-06-10T07:04:20;9.18;;;6.28;;
68365;SDS011;55283;51.466;5.478;2023-06-10T07:06:47;11.05;;;6.85;;
68365;SDS011;55283;51.466;5.478;2023-06-10T07:09:15;12.13;;;7.03;;
68365;SDS011;55283;51.466;5.478;2023-06-10T07:11:40;8.32;;;6.63;;
68365;SDS011;55283;51.466;5.478;2023-06-10T07:14:06;10.33;;;6.37;;
68365;SDS011;55283;51.466;5.478;2023-06-10T07:16:32;10.65;;;6.43;;
68365;SDS011;55283;51.466;5.478;2023-06-10T07:18:57;10.27;;;6.47;;
68365;SDS011;55283;51.466;5.478;2023-06-10T07:21:23;9.70;;;6.17;;
68365;SDS011;55283;51.466;5.478;2023-06-10T07:23:48;10.03;;;6.27;;
68365;SDS011;55283;51.466;5.478;2023-06-10T07:26:14;9.57;;;6.50;;
68365;SDS011;55283;51.466;5.478;2023-06-10T07:28:40;12.03;;;6.80;;
68365;SDS011;55283;51.466;5.478;2023-06-10T07:31:06;9.02;;;6.57;;
68365;SDS011;55283;51.466;5.478;2023-06-10T07:33:33;10.00;;;6.00;;
68365;SDS011;55283;51.466;5.478;2023-06-10T07:35:58;10.07;;;6.50;;
68365;SDS011;55283;51.466;5.478;2023-06-10T07:38:24;9.93;;;6.20;;
68365;SDS011;55283;51.466;5.478;2023-06-10T07:40:50;10.80;;;6.63;;
68365;SDS011;55283;51.466;5.478;2023-06-10T07:43:16;8.37;;;6.00;;
68365;SDS011;55283;51.466;5.478;2023-06-10T07:45:42;11.23;;;6.10;;
68365;SDS011;55283;51.466;5.478;2023-06-10T07:48:08;8.00;;;5.57;;
68365;SDS011;55283;51.466;5.478;2023-06-10T07:50:34;8.85;;;6.25;;
68365;SDS011;55283;51.466;5.478;2023-06-10T07:52:59;8.93;;;6.20;;
68365;SDS011;55283;51.466;5.478;2023-06-10T07:55:25;10.50;;;6.70;;
68365;SDS011;55283;51.466;5.478;2023-06-10T07:57:53;12.17;;;6.30;;
68365;SDS011;55283;51.466;5.478;2023-06-10T08:00:19;11.40;;;6.28;;
68365;SDS011;55283;51.466;5.478;2023-06-10T08:02:46;9.63;;;6.05;;
68365;SDS011;55283;51.466;5.478;2023-06-10T08:05:12;8.70;;;6.32;;
68365;SDS011;55283;51.466;5.478;2023-06-10T08:07:38;10.73;;;6.03;;
68365;SDS011;55283;51.466;5.478;2023-06-10T08:10:04;8.43;;;5.85;;
68365;SDS011;55283;51.466;5.478;2023-06-10T08:12:30;9.23;;;6.22;;
68365;SDS011;55283;51.466;5.478;2023-06-10T08:14:57;11.60;;;6.00;;
68365;SDS011;55283;51.466;5.478;2023-06-10T08:17:22;9.98;;;6.50;;
68365;SDS011;55283;51.466;5.478;2023-06-10T08:19:48;8.43;;;5.57;;
68365;SDS011;55283;51.466;5.478;2023-06-10T08:22:14;8.82;;;5.78;;
68365;SDS011;55283;51.466;5.478;2023-06-10T08:24:39;9.80;;;6.20;;
68365;SDS011;55283;51.466;5.478;2023-06-10T08:27:05;10.80;;;6.27;;
68365;SDS011;55283;51.466;5.478;2023-06-10T08:29:31;7.82;;;5.88;;
68365;SDS011;55283;51.466;5.478;2023-06-10T08:31:57;11.18;;;6.20;;
68365;SDS011;55283;51.466;5.478;2023-06-10T08:34:22;10.07;;;6.50;;
68365;SDS011;55283;51.466;5.478;2023-06-10T08:36:48;9.73;;;6.40;;
68365;SDS011;55283;51.466;5.478;2023-06-10T08:39:18;8.75;;;6.10;;
68365;SDS011;55283;51.466;5.478;2023-06-10T08:41:44;9.40;;;6.10;;
68365;SDS011;55283;51.466;5.478;2023-06-10T08:44:35;10.25;;;6.03;;
68365;SDS011;55283;51.466;5.478;2023-06-10T08:47:05;7.93;;;6.07;;
68365;SDS011;55283;51.466;5.478;2023-06-10T08:49:37;8.75;;;6.10;;
68365;SDS011;55283;51.466;5.478;2023-06-10T08:52:06;9.95;;;6.20;;
68365;SDS011;55283;51.466;5.478;2023-06-10T08:54:33;7.27;;;5.50;;
68365;SDS011;55283;51.466;5.478;2023-06-10T08:57:03;9.90;;;6.15;;
68365;SDS011;55283;51.466;5.478;2023-06-10T08:59:36;9.05;;;5.97;;
68365;SDS011;55283;51.466;5.478;2023-06-10T09:02:02;10.30;;;6.07;;
68365;SDS011;55283;51.466;5.478;2023-06-10T09:04:29;9.40;;;5.75;;
68365;SDS011;55283;51.466;5.478;2023-06-10T09:06:55;7.90;;;5.82;;
68365;SDS011;55283;51.466;5.478;2023-06-10T09:09:21;8.43;;;5.73;;
68365;SDS011;55283;51.466;5.478;2023-06-10T09:11:48;9.05;;;5.88;;
68365;SDS011;55283;51.466;5.478;2023-06-10T09:14:13;7.87;;;5.73;;
68365;SDS011;55283;51.466;5.478;2023-06-10T09:16:39;9.55;;;5.80;;
68365;SDS011;55283;51.466;5.478;2023-06-10T09:19:05;8.77;;;5.80;;
68365;SDS011;55283;51.466;5.478;2023-06-10T09:21:34;7.67;;;6.00;;
68365;SDS011;55283;51.466;5.478;2023-06-10T09:24:03;6.90;;;5.22;;
68365;SDS011;55283;51.466;5.478;2023-06-10T09:26:30;7.53;;;5.32;;
68365;SDS011;55283;51.466;5.478;2023-06-10T09:29:05;8.27;;;5.57;;
68365;SDS011;55283;51.466;5.478;2023-06-10T09:31:36;9.63;;;5.70;;
68365;SDS011;55283;51.466;5.478;2023-06-10T09:34:09;7.80;;;5.80;;
68365;SDS011;55283;51.466;5.478;2023-06-10T09:36:36;8.63;;;5.50;;
68365;SDS011;55283;51.466;5.478;2023-06-10T09:39:02;7.43;;;5.45;;
68365;SDS011;55283;51.466;5.478;2023-06-10T09:41:35;7.15;;;5.45;;
68365;SDS011;55283;51.466;5.478;2023-06-10T09:44:09;7.77;;;5.50;;
68365;SDS011;55283;51.466;5.478;2023-06-10T09:46:37;8.02;;;5.85;;
68365;SDS011;55283;51.466;5.478;2023-06-10T09:49:02;8.33;;;5.37;;
68365;SDS011;55283;51.466;5.478;2023-06-10T09:51:28;7.60;;;5.88;;
68365;SDS011;55283;51.466;5.478;2023-06-10T09:53:53;8.23;;;5.43;;
68365;SDS011;55283;51.466;5.478;2023-06-10T09:56:19;6.90;;;5.20;;
68365;SDS011;55283;51.466;5.478;2023-06-10T09:58:45;8.60;;;5.45;;
68365;SDS011;55283;51.466;5.478;2023-06-10T10:01:12;7.30;;;5.40;;
68365;SDS011;55283;51.466;5.478;2023-06-10T10:03:43;7.65;;;5.50;;
68365;SDS011;55283;51.466;5.478;2023-06-10T10:06:12;8.13;;;5.47;;
68365;SDS011;55283;51.466;5.478;2023-06-10T10:08:38;7.97;;;5.28;;
68365;SDS011;55283;51.466;5.478;2023-06-10T10:11:04;8.33;;;5.13;;
68365;SDS011;55283;51.466;5.478;2023-06-10T10:13:30;9.50;;;5.40;;
68365;SDS011;55283;51.466;5.478;2023-06-10T10:15:59;6.77;;;5.33;;
68365;SDS011;55283;51.466;5.478;2023-06-10T10:18:26;8.77;;;5.50;;
68365;SDS011;55283;51.466;5.478;2023-06-10T10:20:55;6.72;;;5.32;;
68365;SDS011;55283;51.466;5.478;2023-06-10T10:23:26;7.18;;;5.30;;
68365;SDS011;55283;51.466;5.478;2023-06-10T10:26:04;8.53;;;5.33;;
68365;SDS011;55283;51.466;5.478;2023-06-10T10:28:37;6.28;;;5.30;;
68365;SDS011;55283;51.466;5.478;2023-06-10T10:31:10;8.23;;;5.20;;
68365;SDS011;55283;51.466;5.478;2023-06-10T10:33:52;7.43;;;5.13;;
68365;SDS011;55283;51.466;5.478;2023-06-10T10:36:22;6.63;;;5.05;;
68365;SDS011;55283;51.466;5.478;2023-06-10T10:38:48;7.40;;;5.50;;
68365;SDS011;55283;51.466;5.478;2023-06-10T10:41:16;6.33;;;4.80;;
68365;SDS011;55283;51.466;5.478;2023-06-10T10:43:44;6.72;;;5.07;;
68365;SDS011;55283;51.466;5.478;2023-06-10T10:46:14;6.32;;;5.13;;
68365;SDS011;55283;51.466;5.478;2023-06-10T10:48:41;7.40;;;5.13;;
68365;SDS011;55283;51.466;5.478;2023-06-10T10:51:10;6.68;;;4.85;;
68365;SDS011;55283;51.466;5.478;2023-06-10T10:53:37;6.90;;;5.20;;
68365;SDS011;55283;51.466;5.478;2023-06-10T10:56:07;7.23;;;5.17;;
68365;SDS011;55283;51.466;5.478;2023-06-10T10:58:40;7.22;;;5.20;;
68365;SDS011;55283;51.466;5.478;2023-06-10T11:01:12;7.25;;;4.88;;
68365;SDS011;55283;51.466;5.478;2023-06-10T11:03:45;6.80;;;5.17;;
68365;SDS011;55283;51.466;5.478;2023-06-10T11:06:15;6.22;;;4.90;;
68365;SDS011;55283;51.466;5.478;2023-06-10T11:11:19;6.67;;;4.90;;
68365;SDS011;55283;51.466;5.478;2023-06-10T11:16:29;6.55;;;4.97;;
68365;SDS011;55283;51.466;5.478;2023-06-10T11:19:03;7.68;;;5.25;;
68365;SDS011;55283;51.466;5.478;2023-06-10T11:21:28;6.37;;;5.00;;
68365;SDS011;55283;51.466;5.478;2023-06-10T11:23:54;6.57;;;4.80;;
68365;SDS011;55283;51.466;5.478;2023-06-10T11:31:20;6.03;;;4.85;;
68365;SDS011;55283;51.466;5.478;2023-06-10T11:36:22;6.30;;;5.07;;
68365;SDS011;55283;51.466;5.478;2023-06-10T11:38:48;6.75;;;4.70;;
68365;SDS011;55283;51.466;5.478;2023-06-10T11:41:14;6.50;;;4.78;;
68365;SDS011;55283;51.466;5.478;2023-06-10T11:43:42;6.30;;;4.70;;
68365;SDS011;55283;51.466;5.478;2023-06-10T11:46:11;6.35;;;4.63;;
68365;SDS011;55283;51.466;5.478;2023-06-10T11:48:38;6.85;;;5.20;;
68365;SDS011;55283;51.466;5.478;2023-06-10T11:51:06;6.80;;;5.00;;
68365;SDS011;55283;51.466;5.478;2023-06-10T11:53:32;5.55;;;4.32;;
68365;SDS011;55283;51.466;5.478;2023-06-10T11:55:58;6.23;;;5.00;;
68365;SDS011;55283;51.466;5.478;2023-06-10T11:58:24;6.28;;;4.63;;
68365;SDS011;55283;51.466;5.478;2023-06-10T12:00:50;6.27;;;5.00;;
68365;SDS011;55283;51.466;5.478;2023-06-10T12:03:18;6.28;;;4.68;;
68365;SDS011;55283;51.466;5.478;2023-06-10T12:06:04;5.90;;;4.90;;
68365;SDS011;55283;51.466;5.478;2023-06-10T12:08:30;5.17;;;4.50;;
68365;SDS011;55283;51.466;5.478;2023-06-10T12:10:56;5.50;;;4.53;;
68365;SDS011;55283;51.466;5.478;2023-06-10T12:13:23;5.68;;;4.50;;
68365;SDS011;55283;51.466;5.478;2023-06-10T12:15:51;7.50;;;4.20;;
68365;SDS011;55283;51.466;5.478;2023-06-10T12:18:20;5.95;;;4.63;;
68365;SDS011;55283;51.466;5.478;2023-06-10T12:20:46;6.60;;;4.90;;
68365;SDS011;55283;51.466;5.478;2023-06-10T12:23:13;6.13;;;4.60;;
68365;SDS011;55283;51.466;5.478;2023-06-10T12:25:43;5.80;;;4.30;;
68365;SDS011;55283;51.466;5.478;2023-06-10T12:28:15;6.25;;;4.75;;
68365;SDS011;55283;51.466;5.478;2023-06-10T12:30:41;5.23;;;4.50;;
68365;SDS011;55283;51.466;5.478;2023-06-10T12:33:15;5.27;;;4.20;;
68365;SDS011;55283;51.466;5.478;2023-06-10T12:35:46;4.78;;;4.15;;
68365;SDS011;55283;51.466;5.478;2023-06-10T12:38:23;5.38;;;4.38;;
68365;SDS011;55283;51.466;5.478;2023-06-10T12:40:50;4.95;;;4.30;;
68365;SDS011;55283;51.466;5.478;2023-06-10T12:43:19;5.73;;;4.40;;
68365;SDS011;55283;51.466;5.478;2023-06-10T12:45:46;5.43;;;4.43;;
68365;SDS011;55283;51.466;5.478;2023-06-10T12:48:17;5.57;;;4.53;;
68365;SDS011;55283;51.466;5.478;2023-06-10T12:50:43;5.55;;;4.40;;
68365;SDS011;55283;51.466;5.478;2023-06-10T12:53:09;5.28;;;4.30;;
68365;SDS011;55283;51.466;5.478;2023-06-10T12:55:36;6.55;;;4.40;;
68365;SDS011;55283;51.466;5.478;2023-06-10T12:58:02;4.80;;;4.30;;
68365;SDS011;55283;51.466;5.478;2023-06-10T13:00:28;5.80;;;4.53;;
68365;SDS011;55283;51.466;5.478;2023-06-10T13:02:55;5.40;;;4.53;;
68365;SDS011;55283;51.466;5.478;2023-06-10T13:05:21;6.07;;;4.67;;
68365;SDS011;55283;51.466;5.478;2023-06-10T13:07:47;5.10;;;4.57;;
68365;SDS011;55283;51.466;5.478;2023-06-10T13:10:13;5.80;;;4.33;;
68365;SDS011;55283;51.466;5.478;2023-06-10T13:12:40;4.85;;;4.30;;
68365;SDS011;55283;51.466;5.478;2023-06-10T13:15:06;6.07;;;4.55;;
68365;SDS011;55283;51.466;5.478;2023-06-10T13:17:31;4.73;;;4.20;;
68365;SDS011;55283;51.466;5.478;2023-06-10T13:19:59;6.35;;;4.63;;
68365;SDS011;55283;51.466;5.478;2023-06-10T13:22:24;5.43;;;4.33;;
68365;SDS011;55283;51.466;5.478;2023-06-10T13:24:51;5.10;;;4.10;;
68365;SDS011;55283;51.466;5.478;2023-06-10T13:27:17;4.83;;;4.30;;
68365;SDS011;55283;51.466;5.478;2023-06-10T13:29:42;5.65;;;4.40;;
68365;SDS011;55283;51.466;5.478;2023-06-10T13:32:08;5.57;;;4.67;;
68365;SDS011;55283;51.466;5.478;2023-06-10T13:34:33;4.53;;;3.97;;
68365;SDS011;55283;51.466;5.478;2023-06-10T13:36:58;5.00;;;4.37;;
68365;SDS011;55283;51.466;5.478;2023-06-10T13:39:24;5.13;;;4.40;;
68365;SDS011;55283;51.466;5.478;2023-06-10T13:41:49;5.07;;;4.03;;
68365;SDS011;55283;51.466;5.478;2023-06-10T13:44:15;5.03;;;4.20;;
68365;SDS011;55283;51.466;5.478;2023-06-10T13:46:40;5.10;;;4.40;;
68365;SDS011;55283;51.466;5.478;2023-06-10T13:49:06;4.68;;;4.18;;
68365;SDS011;55283;51.466;5.478;2023-06-10T13:51:31;4.87;;;4.20;;
68365;SDS011;55283;51.466;5.478;2023-06-10T13:53:56;6.60;;;4.50;;
68365;SDS011;55283;51.466;5.478;2023-06-10T13:56:22;4.43;;;4.03;;
68365;SDS011;55283;51.466;5.478;2023-06-10T13:58:48;4.53;;;4.13;;
68365;SDS011;55283;51.466;5.478;2023-06-10T14:01:13;4.70;;;4.10;;
68365;SDS011;55283;51.466;5.478;2023-06-10T14:03:39;4.32;;;3.92;;
68365;SDS011;55283;51.466;5.478;2023-06-10T14:06:04;4.67;;;4.07;;
68365;SDS011;55283;51.466;5.478;2023-06-10T14:08:30;4.80;;;4.20;;
68365;SDS011;55283;51.466;5.478;2023-06-10T14:10:55;4.53;;;3.87;;
68365;SDS011;55283;51.466;5.478;2023-06-10T14:13:20;5.80;;;4.03;;
68365;SDS011;55283;51.466;5.478;2023-06-10T14:15:46;4.70;;;4.07;;
68365;SDS011;55283;51.466;5.478;2023-06-10T14:18:11;4.53;;;3.90;;
68365;SDS011;55283;51.466;5.478;2023-06-10T14:20:37;4.60;;;4.10;;
68365;SDS011;55283;51.466;5.478;2023-06-10T14:23:02;4.60;;;4.20;;
68365;SDS011;55283;51.466;5.478;2023-06-10T14:25:28;5.57;;;4.07;;
68365;SDS011;55283;51.466;5.478;2023-06-10T14:27:53;4.33;;;3.90;;
68365;SDS011;55283;51.466;5.478;2023-06-10T14:30:19;5.13;;;4.22;;
68365;SDS011;55283;51.466;5.478;2023-06-10T14:32:45;4.50;;;4.00;;
68365;SDS011;55283;51.466;5.478;2023-06-10T14:35:10;5.43;;;4.07;;
68365;SDS011;55283;51.466;5.478;2023-06-10T14:37:36;4.97;;;4.00;;
68365;SDS011;55283;51.466;5.478;2023-06-10T14:40:02;5.37;;;4.20;;
68365;SDS011;55283;51.466;5.478;2023-06-10T14:42:31;4.53;;;3.90;;
68365;SDS011;55283;51.466;5.478;2023-06-10T14:44:57;5.47;;;4.10;;
68365;SDS011;55283;51.466;5.478;2023-06-10T14:47:22;5.83;;;4.03;;
68365;SDS011;55283;51.466;5.478;2023-06-10T14:49:48;5.35;;;4.10;;
68365;SDS011;55283;51.466;5.478;2023-06-10T14:52:13;4.53;;;4.13;;
68365;SDS011;55283;51.466;5.478;2023-06-10T14:54:39;5.30;;;4.40;;
68365;SDS011;55283;51.466;5.478;2023-06-10T14:57:04;4.50;;;3.90;;
68365;SDS011;55283;51.466;5.478;2023-06-10T14:59:31;4.40;;;3.90;;